Terminal Aerodrome Forecast
Issued by NWS Wilmington, OH

Current Version | Previous Version | Text Only | Print | Product List | Glossary Off
Versions: 1 2 3 4 5 6 7 8 9 10 11 12 13 14 15 16 17 18 19 20 21 22 23 24 25

000
FTUS41 KILN 292157 AAB
TAFILN
TAF AMD
KILN 292157Z 2922/3018 06006KT P6SM SCT040
     FM300000 05004KT P6SM SCT080
      TEMPO 3009/3013 4SM BR
     FM301500 07005KT P6SM SCT250=

USA.gov is the U.S. government's official web portal to all federal, state and local government web resources and services.